Billy Bishop Toronto City Centre Airport

CYTZ · Ontario, Canada

Storia di METAR CYTZ · Aeroporto di Toronto-City Billy Bishop

Di seguito sono riportati i METAR degli ultimi giorni. Seleziona un anno per sfogliare i METAR più vecchi, dall'anno 2007 in poi.

27 novembre 2022

Tempo Codice Tempo metereologico Temp. Vista Base nuvolosa Vento METAR/SPECI
13:23
V
6 °C 9 mi 3.900 ft 050° 050° 12 - 24 kt SPECI CYTZ 271823Z AUTO 05012G24KT 9SM OVC039 06/03 A2944 RMK PRESFR SLP972
13:23
V
6 °C 9 mi 3.900 ft 050° 050° 12 - 24 kt METAR CYTZ 271823Z AUTO 05012G24KT 9SM OVC039 06/03 A2944 RMK PRESFR SLP972
13:00
V
5 °C 9 mi 3.900 ft 050° 050° 14 - 19 kt METAR CYTZ 271800Z AUTO 05014G19KT 9SM -RA OVC039 05/03 A2946 RMK PRESFR PCPN 1.5MM PAST HR SLP980
12:49
V
5 °C 6 mi 3.900 ft 060° 060° 13 - 19 kt SPECI CYTZ 271749Z AUTO 06013G19KT 6SM -RA BR OVC039 05/03 A2948 RMK PRESFR SLP987
12:36
V
5 °C 5 mi 3.700 ft 060° 060° 14 - 21 kt METAR CYTZ 271736Z AUTO 06014G21KT 5SM -RA BR OVC037 05/03 A2950 RMK PRESFR SLP992
12:00
V
6 °C 9 mi 4.400 ft 060° 060° 14 - 19 kt METAR CYTZ 271700Z AUTO 06014G19KT 9SM -RA BKN044 OVC050 06/04 A2953 RMK PRESFR SLP005
11:00
V
6 °C 8 mi 8.000 ft 060° 060° 14 kt METAR CYTZ 271600Z AUTO 06014KT 8SM -RA SCT060 OVC080 06/04 A2957 RMK PRESFR SLP018
10:00
V
6 °C 9 mi 8.700 ft 090° 090° 8 kt METAR CYTZ 271500Z AUTO 09008KT 9SM -RA SCT066 OVC087 06/03 A2961 RMK SLP031
09:35
V
6 °C 9 mi 8.100 ft 080° 080° 9 kt METAR CYTZ 271435Z AUTO 08009KT 9SM -RA BKN081 OVC110 06/03 A2962 RMK SLP034
09:00
V
6 °C 9 mi 11.000 ft 060° 060° 11 kt METAR CYTZ 271400Z AUTO 06011KT 9SM FEW076 BKN110 OVC140 06/03 A2963 RMK SLP039
08:00
V
5 °C 9 mi 17.000 ft 080° 080° 5 kt METAR CYTZ 271300Z AUTO 08005KT 9SM OVC170 05/03 A2967 RMK PRESFR SLP051
07:00
V
4 °C 9 mi 18.000 ft Var 000° 0 kt METAR CYTZ 271200Z AUTO 00000KT 9SM BKN180 OVC200 04/01 A2970 RMK SLP060
06:00
V
5 °C 9 mi 19.000 ft 100° 100° 3 kt METAR CYTZ 271100Z AUTO 10003KT 030V140 9SM BKN190 OVC230 05/02 A2973 RMK SLP070
05:00
V
4 °C 9 mi 21.000 ft Var 000° 0 kt METAR CYTZ 271000Z AUTO 00000KT 9SM BKN210 BKN230 04/02 A2975 RMK SLP078
04:00
V
5 °C 9 mi 22.000 ft 260° 260° 3 kt METAR CYTZ 270900Z AUTO 26003KT 210V310 9SM BKN220 OVC240 05/03 A2978 RMK SLP087
03:00
V
5 °C 9 mi 24.000 ft 210° 210° 6 kt METAR CYTZ 270800Z AUTO 21006KT 9SM BKN240 05/03 A2979 RMK SLP091
02:00
V
6 °C 9 mi - 250° 250° 4 kt METAR CYTZ 270700Z AUTO 25004KT 9SM CLR 06/02 A2980 RMK SLP095
01:00
V
5 °C 9 mi - 240° 240° 7 kt METAR CYTZ 270600Z AUTO 24007KT 9SM CLR 05/02 A2980 RMK SLP096
00:00
V
5 °C 9 mi - 240° 240° 10 kt METAR CYTZ 270500Z AUTO 24010KT 9SM CLR 05/03 A2982 RMK SLP103

26 novembre 2022

Tempo Codice Tempo metereologico Temp. Vista Base nuvolosa Vento METAR/SPECI
23:00
V
6 °C 9 mi - 270° 270° 12 kt METAR CYTZ 270400Z AUTO 27012KT 9SM CLR 06/00 A2983 RMK SLP104
22:00
V
6 °C 9 mi - 260° 260° 9 - 15 kt METAR CYTZ 270300Z AUTO 26009G15KT 9SM CLR 06/01 A2984 RMK SLP110
21:00
V
5 °C 9 mi - 240° 240° 12 kt METAR CYTZ 270200Z AUTO 24012KT 230V290 9SM CLR 05/03 A2987 RMK SLP120
20:00
V
6 °C 9 mi - 230° 230° 9 kt METAR CYTZ 270100Z AUTO 23009KT 9SM CLR 06/03 A2987 RMK SLP119
19:00
V
6 °C 9 mi - 220° 220° 9 kt METAR CYTZ 270000Z AUTO 22009KT 9SM CLR 06/03 A2988 RMK SLP124
18:00
V
7 °C 9 mi - 220° 220° 10 - 15 kt METAR CYTZ 262300Z AUTO 22010G15KT 9SM CLR 07/03 A2988 RMK SLP124
17:00
V
7 °C 9 mi - 220° 220° 14 - 22 kt METAR CYTZ 262200Z AUTO 22014G22KT 9SM CLR 07/04 A2989 RMK SLP125
16:00
V
8 °C 9 mi - 210° 210° 17 kt METAR CYTZ 262100Z AUTO 21017KT 9SM CLR 08/04 A2986 RMK SLP117
15:00
V
9 °C 9 mi - 200° 200° 16 kt METAR CYTZ 262000Z AUTO 20016KT 9SM CLR 09/05 A2987 RMK SLP118
14:00
V
9 °C 9 mi - 200° 200° 15 kt METAR CYTZ 261900Z AUTO 20015KT 9SM CLR 09/05 A2988 RMK SLP124
13:00
V
9 °C 9 mi - 220° 220° 14 - 22 kt METAR CYTZ 261800Z AUTO 22014G22KT 9SM CLR 09/03 A2990 RMK SLP130
12:00
V
8 °C 9 mi - 220° 220° 16 kt METAR CYTZ 261700Z AUTO 22016KT 9SM CLR 08/02 A2994 RMK PRESFR SLP142
11:00
V
6 °C 9 mi - 220° 220° 10 - 18 kt METAR CYTZ 261600Z AUTO 22010G18KT 9SM CLR 06/02 A2998 RMK SLP157
10:00
V
5 °C 9 mi - 240° 240° 9 - 17 kt METAR CYTZ 261500Z AUTO 24009G17KT 9SM CLR 05/01 A3000 RMK SLP164
09:00
V
4 °C 9 mi - 230° 230° 9 - 16 kt METAR CYTZ 261400Z AUTO 23009G16KT 9SM CLR 04/01 A3001 RMK SLP166
08:00
V
3 °C 9 mi - 220° 220° 9 - 15 kt METAR CYTZ 261300Z AUTO 22009G15KT 9SM CLR 03/01 A3001 RMK SLP167
07:00
V
2 °C 9 mi - 260° 260° 11 kt METAR CYTZ 261200Z AUTO 26011KT 9SM CLR 02/00 A3003 RMK SLP172
06:00
V
3 °C 9 mi - 220° 220° 10 - 16 kt METAR CYTZ 261100Z AUTO 22010G16KT 9SM CLR 03/01 A3002 RMK SLP169
05:00
V
3 °C 9 mi - 250° 250° 8 kt METAR CYTZ 261000Z AUTO 25008KT 9SM CLR 03/00 A3003 RMK SLP175
04:00
V
2 °C 9 mi - 270° 270° 8 kt METAR CYTZ 260900Z AUTO 27008KT 9SM CLR 02/M00 A3003 RMK SLP175
03:00
V
3 °C 9 mi - 260° 260° 10 kt METAR CYTZ 260800Z AUTO 26010KT 9SM CLR 03/00 A3004 RMK SLP178
02:00
V
3 °C 9 mi - 270° 270° 11 kt METAR CYTZ 260700Z AUTO 27011KT 9SM CLR 03/M00 A3005 RMK SLP179
01:00
V
4 °C 9 mi 3.600 ft 260° 260° 11 kt METAR CYTZ 260600Z AUTO 26011KT 9SM BKN036 04/M00 A3005 RMK SLP180
00:00
V
4 °C 9 mi 3.800 ft 260° 260° 11 kt METAR CYTZ 260500Z AUTO 26011KT 9SM BKN038 04/M00 A3004 RMK SLP177

25 novembre 2022

Tempo Codice Tempo metereologico Temp. Vista Base nuvolosa Vento METAR/SPECI
23:00
V
5 °C 9 mi 4.000 ft 280° 280° 12 kt METAR CYTZ 260400Z AUTO 28012KT 9SM OVC040 05/M01 A3004 RMK SLP176
22:00
V
5 °C 9 mi 4.400 ft 250° 250° 10 kt METAR CYTZ 260300Z AUTO 25010KT 9SM OVC044 05/01 A3004 RMK SLP177
21:00
V
5 °C 9 mi 4.600 ft 260° 260° 11 kt METAR CYTZ 260200Z AUTO 26011KT 9SM SCT029 OVC046 05/01 A3004 RMK SLP178
20:00
V
5 °C 9 mi 5.000 ft 280° 280° 12 - 18 kt METAR CYTZ 260100Z AUTO 28012G18KT 9SM OVC050 05/00 A3003 RMK SLP174
19:00
V
5 °C 9 mi 4.800 ft 280° 280° 14 - 19 kt METAR CYTZ 260000Z AUTO 28014G19KT 9SM OVC048 05/00 A3001 RMK SLP168
18:00
V
5 °C 9 mi 5.000 ft 280° 280° 11 - 17 kt METAR CYTZ 252300Z AUTO 28011G17KT 9SM FEW038 OVC050 05/00 A3001 RMK SLP166
17:00
V
5 °C 9 mi 5.500 ft 290° 290° 17 - 23 kt METAR CYTZ 252200Z AUTO 29017G23KT 9SM FEW033 OVC055 05/00 A3000 RMK SLP162
16:00
V
6 °C 9 mi 6.000 ft 310° 310° 16 - 22 kt METAR CYTZ 252100Z AUTO 31016G22KT 9SM SCT039 SCT047 OVC060 06/01 A2997 RMK SLP154
15:42
V
5 °C 9 mi 6.000 ft 310° 310° 14 - 20 kt METAR CYTZ 252042Z AUTO 31014G20KT 9SM SCT033 OVC060 05/01 A2996 RMK SLP151
15:26
V
6 °C 9 mi 3.800 ft 300° 300° 21 - 29 kt METAR CYTZ 252026Z AUTO 30021G29KT 9SM -RA SCT029 BKN038 OVC055 06/00 A2995 RMK SLP147
15:00
V
7 °C 9 mi 6.000 ft 290° 290° 15 - 21 kt METAR CYTZ 252000Z AUTO 29015G21KT 9SM FEW040 OVC060 07/M00 A2995 RMK SLP146
14:52
V
7 °C 9 mi 6.000 ft 290° 290° 14 - 20 kt SPECI CYTZ 251952Z AUTO 29014G20KT 9SM FEW040 OVC060 07/00 A2995 RMK SLP145
14:39
V
6 °C 9 mi 5.500 ft 310° 310° 19 - 30 kt METAR CYTZ 251939Z AUTO 31019G30KT 9SM -RA FEW040 OVC055 06/M00 A2993 RMK SLP141
14:00
V
7 °C 9 mi 6.000 ft 290° 290° 21 - 28 kt METAR CYTZ 251900Z AUTO 29021G28KT 9SM OVC060 07/M01 A2992 RMK SLP138
13:00
V
7 °C 9 mi 5.000 ft 290° 290° 21 - 29 kt METAR CYTZ 251800Z AUTO 29021G29KT 9SM FEW032 OVC050 07/00 A2992 RMK SLP136
12:00
V
7 °C 9 mi 4.300 ft 310° 310° 21 - 28 kt METAR CYTZ 251700Z AUTO 31021G28KT 9SM SCT033 BKN043 OVC050 07/01 A2991 RMK SLP133
11:42
V
7 °C 9 mi 4.900 ft 290° 290° 21 - 33 kt METAR CYTZ 251642Z AUTO 29021G33KT 9SM -RA SCT033 OVC049 07/01 A2991 RMK SLP133
11:00
V
8 °C 9 mi 4.900 ft 280° 280° 20 - 30 kt METAR CYTZ 251600Z AUTO 28020G30KT 9SM BKN049 08/01 A2990 RMK SLP130
10:00
V
7 °C 9 mi 4.100 ft 300° 300° 23 - 29 kt METAR CYTZ 251500Z AUTO 30023G29KT 9SM BKN041 07/01 A2988 RMK SLP124
09:00
M
7 °C 9 mi 2.900 ft 290° 290° 20 - 28 kt METAR CYTZ 251400Z AUTO 29020G28KT 9SM OVC029 07/02 A2987 RMK SLP120
08:34
M
7 °C 9 mi 2.700 ft 300° 300° 20 - 28 kt METAR CYTZ 251334Z AUTO 30020G28KT 9SM OVC027 07/03 A2987 RMK PRESRR SLP118
08:00
M
7 °C 9 mi 2.200 ft 300° 300° 20 - 29 kt METAR CYTZ 251300Z AUTO 30020G29KT 9SM BKN022 OVC027 07/03 A2984 RMK SLP110
07:38
M
7 °C 9 mi 2.200 ft 310° 310° 27 - 32 kt METAR CYTZ 251238Z AUTO 31027G32KT 9SM BKN022 OVC028 07/04 A2982 RMK SLP102
07:19
M
8 °C 9 mi 2.000 ft 300° 300° 16 - 23 kt METAR CYTZ 251219Z AUTO 30016G23KT 9SM BKN020 OVC028 08/05 A2981 RMK SLP099
07:00
M
8 °C 9 mi 1.800 ft 300° 300° 16 - 23 kt METAR CYTZ 251200Z AUTO 30016G23KT 9SM BKN018 BKN024 OVC030 08/05 A2980 RMK SLP095
06:00
M
8 °C 9 mi 1.600 ft 290° 290° 20 - 27 kt METAR CYTZ 251100Z AUTO 29020G27KT 9SM OVC016 08/06 A2980 RMK SLP095
05:43
M
8 °C 9 mi 1.600 ft 290° 290° 19 - 26 kt METAR CYTZ 251043Z AUTO 29019G26KT 9SM OVC016 08/06 A2980 RMK SLP095
05:00
M
6 °C 7 mi 1.800 ft 250° 250° 9 kt METAR CYTZ 251000Z AUTO 25009KT 7SM OVC018 06/06 A2979 RMK SLP092

Noi e le terze parti seguiamo il tuo comportamento su internet con i cookie. Se continui, riteniamo che tu sia d'accordo con la nostra Politica sui cookie.